Time;durP1;ratioP1;P1;durP2;ratioP2;P2;SDS_P1;SDS_P2;PMS_P1;PMS_P2;Temp;Humidity;BMP_temperature;BMP_pressure;BME280_temperature;BME280_humidity;BME280_pressure;Samples;Min_cycle;Max_cycle;Signal;HPM_P1;HPM_P2
2024/02/11 00:02:18;;;;;;;17.95;11.20;;;;;;;;;;5012828;28;20487;-87
2024/02/11 00:04:46;;;;;;;19.02;12.77;;;;;;;;;;5016708;28;20049;-87
2024/02/11 00:07:13;;;;;;;14.10;11.50;;;;;;;;;;5008821;28;20053;-87
2024/02/11 00:09:40;;;;;;;15.00;11.52;;;;;;;;;;5029093;28;20251;-86
2024/02/11 00:12:08;;;;;;;16.40;11.48;;;;;;;;;;5023192;28;20470;-86
2024/02/11 00:14:35;;;;;;;31.90;13.80;;;;;;;;;;5023096;28;20614;-86
2024/02/11 00:17:02;;;;;;;16.10;12.23;;;;;;;;;;5007436;28;20392;-87
2024/02/11 00:19:30;;;;;;;17.25;11.65;;;;;;;;;;5011788;28;20088;-86
2024/02/11 00:21:57;;;;;;;15.75;11.95;;;;;;;;;;5022439;28;20506;-87
2024/02/11 00:24:29;;;;;;;16.02;11.65;;;;;;;;;;5007828;28;20132;-87
2024/02/11 00:26:57;;;;;;;18.58;11.45;;;;;;;;;;5011472;28;20488;-86
2024/02/11 00:29:24;;;;;;;18.08;11.40;;;;;;;;;;5010277;28;20046;-86
2024/02/11 00:31:51;;;;;;;14.27;10.55;;;;;;;;;;5020404;28;20573;-86
2024/02/11 00:34:18;;;;;;;17.00;11.38;;;;;;;;;;5004222;28;20475;-86
2024/02/11 00:36:47;;;;;;;14.93;10.45;;;;;;;;;;5012577;28;20439;-86
2024/02/11 00:39:14;;;;;;;15.15;10.73;;;;;;;;;;5022527;28;20499;-87
2024/02/11 00:41:42;;;;;;;16.30;11.25;;;;;;;;;;5012860;28;20045;-87
2024/02/11 00:44:10;;;;;;;18.15;11.85;;;;;;;;;;5004073;28;20050;-86
2024/02/11 00:46:38;;;;;;;17.40;11.25;;;;;;;;;;5011541;28;20108;-87
2024/02/11 00:49:06;;;;;;;17.40;12.27;;;;;;;;;;5030524;28;20081;-86
2024/02/11 00:51:33;;;;;;;16.15;11.05;;;;;;;;;;5006140;28;20483;-86
2024/02/11 00:54:03;;;;;;;18.10;11.50;;;;;;;;;;5010987;28;20520;-86
2024/02/11 00:56:31;;;;;;;17.17;12.30;;;;;;;;;;5019115;28;20062;-86
2024/02/11 00:58:58;;;;;;;19.65;11.43;;;;;;;;;;5013498;28;20496;-86
2024/02/11 01:01:26;;;;;;;20.98;12.23;;;;;;;;;;5010538;28;20089;-86
2024/02/11 01:03:56;;;;;;;16.83;11.55;;;;;;;;;;5022020;28;20053;-86
2024/02/11 01:06:24;;;;;;;34.05;11.95;;;;;;;;;;5029535;28;20052;-86
2024/02/11 01:08:52;;;;;;;15.68;11.35;;;;;;;;;;5021480;28;20053;-86
2024/02/11 01:11:19;;;;;;;21.98;13.77;;;;;;;;;;5037342;28;20064;-87
2024/02/11 01:13:47;;;;;;;18.02;12.52;;;;;;;;;;5042892;28;20046;-86
2024/02/11 01:16:14;;;;;;;20.55;12.98;;;;;;;;;;5020106;28;20125;-86
2024/02/11 01:18:43;;;;;;;19.65;11.90;;;;;;;;;;5019105;28;20061;-86
2024/02/11 01:21:10;;;;;;;19.90;12.98;;;;;;;;;;5023068;28;20109;-87
2024/02/11 01:23:38;;;;;;;21.67;13.48;;;;;;;;;;5034913;28;20141;-86
2024/02/11 01:26:05;;;;;;;18.25;12.23;;;;;;;;;;5021242;28;20487;-87
2024/02/11 01:28:32;;;;;;;16.77;11.68;;;;;;;;;;5036166;28;20049;-87
2024/02/11 01:30:59;;;;;;;19.08;12.23;;;;;;;;;;5020911;28;20054;-87
2024/02/11 01:33:27;;;;;;;25.13;13.70;;;;;;;;;;5025474;28;20077;-87
2024/02/11 01:35:54;;;;;;;23.95;12.95;;;;;;;;;;5041333;28;20050;-87
2024/02/11 01:38:21;;;;;;;24.13;13.32;;;;;;;;;;5018768;28;20057;-87
2024/02/11 01:40:50;;;;;;;22.77;14.10;;;;;;;;;;5026690;28;20045;-87
2024/02/11 01:43:17;;;;;;;25.48;13.93;;;;;;;;;;5026990;28;20054;-87
2024/02/11 01:45:47;;;;;;;22.45;14.30;;;;;;;;;;5036084;28;20106;-87
2024/02/11 01:48:15;;;;;;;20.02;12.90;;;;;;;;;;5036760;28;20491;-87
2024/02/11 01:50:44;;;;;;;18.70;13.60;;;;;;;;;;5027237;28;20068;-87
2024/02/11 01:53:12;;;;;;;21.77;12.95;;;;;;;;;;5019346;28;20050;-87
2024/02/11 01:55:41;;;;;;;16.77;12.88;;;;;;;;;;5024673;28;20074;-87
2024/02/11 01:58:09;;;;;;;19.13;12.95;;;;;;;;;;5021230;28;20080;-87
2024/02/11 02:00:37;;;;;;;19.40;12.27;;;;;;;;;;5045142;28;20061;-86
2024/02/11 02:03:05;;;;;;;18.63;12.27;;;;;;;;;;5015595;28;20393;-87
2024/02/11 02:05:32;;;;;;;16.58;11.88;;;;;;;;;;5032169;28;20057;-87
2024/02/11 02:08:03;;;;;;;17.25;11.93;;;;;;;;;;5009983;28;20058;-87
2024/02/11 02:10:31;;;;;;;16.75;11.60;;;;;;;;;;5033022;28;20070;-87
2024/02/11 02:12:58;;;;;;;16.63;11.20;;;;;;;;;;5023820;28;20113;-87
2024/02/11 02:15:25;;;;;;;19.02;11.55;;;;;;;;;;5023552;28;20108;-86
2024/02/11 02:17:53;;;;;;;16.40;11.20;;;;;;;;;;5034250;28;20046;-87
2024/02/11 02:20:20;;;;;;;16.30;10.98;;;;;;;;;;5034051;28;20060;-87
2024/02/11 02:22:48;;;;;;;17.50;11.27;;;;;;;;;;5018447;28;20054;-86
2024/02/11 02:25:15;;;;;;;17.63;12.35;;;;;;;;;;5021548;28;20109;-86
2024/02/11 02:27:43;;;;;;;14.48;10.77;;;;;;;;;;5027972;28;20442;-86
2024/02/11 02:30:10;;;;;;;17.95;11.70;;;;;;;;;;5023566;28;20060;-86
2024/02/11 02:32:38;;;;;;;21.85;13.15;;;;;;;;;;5024018;28;20069;-88
2024/02/11 02:35:05;;;;;;;16.58;11.93;;;;;;;;;;5016455;28;20053;-87
2024/02/11 02:37:32;;;;;;;16.20;11.20;;;;;;;;;;5026313;28;20073;-87
2024/02/11 02:40:00;;;;;;;15.70;11.32;;;;;;;;;;5022939;28;20117;-86
2024/02/11 02:42:27;;;;;;;16.65;11.63;;;;;;;;;;5030576;28;20056;-86
2024/02/11 02:44:54;;;;;;;16.80;11.63;;;;;;;;;;5022647;28;20053;-87
2024/02/11 02:47:22;;;;;;;17.95;12.13;;;;;;;;;;5032669;28;20042;-87
2024/02/11 02:49:49;;;;;;;22.02;13.93;;;;;;;;;;5032232;28;20042;-86
2024/02/11 02:52:17;;;;;;;18.40;11.80;;;;;;;;;;5041313;28;20084;-87
2024/02/11 02:54:44;;;;;;;19.20;11.98;;;;;;;;;;5030629;28;20058;-87
2024/02/11 02:57:14;;;;;;;17.38;11.52;;;;;;;;;;5013891;28;20054;-86
2024/02/11 02:59:42;;;;;;;14.50;11.18;;;;;;;;;;5035480;28;20108;-87
2024/02/11 03:02:10;;;;;;;16.63;11.55;;;;;;;;;;5012400;28;20074;-87
2024/02/11 03:04:38;;;;;;;15.88;10.95;;;;;;;;;;5015746;28;20050;-87
2024/02/11 03:07:08;;;;;;;15.80;11.40;;;;;;;;;;5035475;28;20045;-86
2024/02/11 03:09:35;;;;;;;15.65;11.73;;;;;;;;;;5036952;28;20054;-86
2024/02/11 03:12:03;;;;;;;16.35;11.15;;;;;;;;;;5017503;28;20415;-87
2024/02/11 03:14:31;;;;;;;17.50;11.50;;;;;;;;;;5031557;28;20050;-87
2024/02/11 03:16:58;;;;;;;19.13;11.65;;;;;;;;;;5020771;28;20049;-86
2024/02/11 03:19:26;;;;;;;18.95;11.88;;;;;;;;;;5044232;28;20399;-87
2024/02/11 03:21:53;;;;;;;16.48;11.20;;;;;;;;;;5033752;28;20487;-87
2024/02/11 03:24:21;;;;;;;19.35;12.27;;;;;;;;;;5019500;28;20050;-87
2024/02/11 03:26:48;;;;;;;16.40;11.38;;;;;;;;;;5018855;28;20046;-87
2024/02/11 03:29:18;;;;;;;16.20;11.52;;;;;;;;;;5035268;28;20128;-87
2024/02/11 03:31:46;;;;;;;18.65;12.07;;;;;;;;;;5033448;28;20072;-87
2024/02/11 03:34:14;;;;;;;19.92;12.60;;;;;;;;;;5018043;28;20106;-87
2024/02/11 03:36:42;;;;;;;20.50;12.05;;;;;;;;;;5033542;28;20060;-86
2024/02/11 03:39:10;;;;;;;18.20;12.00;;;;;;;;;;5036441;28;20053;-87
2024/02/11 03:41:37;;;;;;;18.55;11.75;;;;;;;;;;5028780;28;20042;-86
2024/02/11 03:44:05;;;;;;;17.65;11.95;;;;;;;;;;5018535;28;20047;-86
2024/02/11 03:46:32;;;;;;;19.17;11.90;;;;;;;;;;5035510;28;20483;-87
2024/02/11 03:49:01;;;;;;;15.55;11.13;;;;;;;;;;5017207;28;20047;-86
2024/02/11 03:51:29;;;;;;;25.00;13.90;;;;;;;;;;5020764;28;20051;-87
2024/02/11 03:53:59;;;;;;;21.23;13.45;;;;;;;;;;5035116;28;20057;-87
2024/02/11 03:56:28;;;;;;;20.05;12.18;;;;;;;;;;5035435;28;20049;-88
2024/02/11 03:58:56;;;;;;;16.98;11.20;;;;;;;;;;5019032;28;20054;-86
2024/02/11 04:01:24;;;;;;;18.13;11.88;;;;;;;;;;5026438;28;20069;-87
2024/02/11 04:03:51;;;;;;;16.30;11.82;;;;;;;;;;5030763;28;20496;-88
2024/02/11 04:06:20;;;;;;;17.13;12.05;;;;;;;;;;5018305;28;20050;-87
2024/02/11 04:08:51;;;;;;;19.23;12.02;;;;;;;;;;5019418;28;20050;-86
2024/02/11 04:11:19;;;;;;;13.55;10.85;;;;;;;;;;5024738;28;20081;-87
2024/02/11 04:13:47;;;;;;;17.55;12.02;;;;;;;;;;5042080;28;20109;-87
2024/02/11 04:16:20;;;;;;;18.58;12.45;;;;;;;;;;5036209;28;20058;-86
2024/02/11 04:18:50;;;;;;;18.47;12.10;;;;;;;;;;5028291;28;20052;-87
2024/02/11 04:21:20;;;;;;;18.45;11.77;;;;;;;;;;5026842;28;20054;-87
2024/02/11 04:23:48;;;;;;;16.77;11.25;;;;;;;;;;5023295;28;20046;-86
2024/02/11 04:26:17;;;;;;;16.40;11.75;;;;;;;;;;5018022;28;20472;-87
2024/02/11 04:28:48;;;;;;;18.55;12.07;;;;;;;;;;5031271;28;20050;-87
2024/02/11 04:31:19;;;;;;;18.27;12.77;;;;;;;;;;5019425;28;20045;-87
2024/02/11 04:33:46;;;;;;;17.63;12.48;;;;;;;;;;5032659;28;20561;-87
2024/02/11 04:36:16;;;;;;;20.70;12.80;;;;;;;;;;5016008;28;20105;-87
2024/02/11 04:38:47;;;;;;;22.63;14.63;;;;;;;;;;5016923;28;20054;-87
2024/02/11 04:41:17;;;;;;;21.65;13.15;;;;;;;;;;5032946;28;20100;-88
2024/02/11 04:43:48;;;;;;;24.23;13.98;;;;;;;;;;5017409;28;20076;-87
2024/02/11 04:46:17;;;;;;;24.75;14.90;;;;;;;;;;5017357;28;20054;-86
2024/02/11 04:48:45;;;;;;;23.20;12.73;;;;;;;;;;5031004;28;20078;-87
2024/02/11 04:51:14;;;;;;;20.02;13.23;;;;;;;;;;5022342;28;20058;-87
2024/02/11 04:53:42;;;;;;;19.58;12.00;;;;;;;;;;5021780;28;20053;-86
2024/02/11 04:56:11;;;;;;;16.88;12.32;;;;;;;;;;5034653;28;20057;-87
2024/02/11 04:58:39;;;;;;;17.08;11.27;;;;;;;;;;5034266;28;20061;-87
2024/02/11 05:01:08;;;;;;;18.40;11.65;;;;;;;;;;5017664;28;20145;-86
2024/02/11 05:03:35;;;;;;;15.18;11.10;;;;;;;;;;5030579;28;20046;-86
2024/02/11 05:06:07;;;;;;;15.23;10.98;;;;;;;;;;5034204;28;20105;-88
2024/02/11 05:08:34;;;;;;;20.08;12.13;;;;;;;;;;5018881;28;20050;-86
2024/02/11 05:11:02;;;;;;;19.10;12.55;;;;;;;;;;5020385;28;20045;-87
2024/02/11 05:13:30;;;;;;;16.77;11.38;;;;;;;;;;5034944;28;20049;-86
2024/02/11 05:16:01;;;;;;;17.73;12.43;;;;;;;;;;5026302;28;20045;-86
2024/02/11 05:18:29;;;;;;;24.27;14.77;;;;;;;;;;5035820;28;20049;-87
2024/02/11 05:20:57;;;;;;;19.83;13.48;;;;;;;;;;5036184;28;20077;-87
2024/02/11 05:23:25;;;;;;;21.98;13.55;;;;;;;;;;5023717;28;20050;-87
2024/02/11 05:25:53;;;;;;;27.67;14.63;;;;;;;;;;5025579;28;20053;-86
2024/02/11 05:28:20;;;;;;;15.82;11.88;;;;;;;;;;5021583;28;20046;-87
2024/02/11 05:30:48;;;;;;;23.10;13.05;;;;;;;;;;5032837;28;20046;-87
2024/02/11 05:33:18;;;;;;;19.98;12.57;;;;;;;;;;5015555;28;20058;-86
2024/02/11 05:35:48;;;;;;;23.48;13.25;;;;;;;;;;5029558;28;20064;-86
2024/02/11 05:38:19;;;;;;;27.67;14.70;;;;;;;;;;5020241;28;20069;-87
2024/02/11 05:40:50;;;;;;;19.65;12.98;;;;;;;;;;5031170;28;20116;-86
2024/02/11 05:43:21;;;;;;;17.88;12.20;;;;;;;;;;5018389;28;20050;-87
2024/02/11 05:45:49;;;;;;;16.45;11.70;;;;;;;;;;5032135;28;20068;-86
2024/02/11 05:48:17;;;;;;;19.75;12.20;;;;;;;;;;5025435;28;20050;-87
2024/02/11 05:50:46;;;;;;;25.83;14.70;;;;;;;;;;5024840;28;20092;-87
2024/02/11 05:53:14;;;;;;;25.02;14.20;;;;;;;;;;5021590;28;20054;-87
2024/02/11 05:55:42;;;;;;;26.95;15.50;;;;;;;;;;5022800;28;20137;-87
2024/02/11 05:58:09;;;;;;;23.73;14.63;;;;;;;;;;5017073;28;20052;-87
2024/02/11 06:00:37;;;;;;;15.13;11.70;;;;;;;;;;5030603;28;20057;-87
2024/02/11 06:03:05;;;;;;;17.38;12.48;;;;;;;;;;5015344;28;20045;-87
2024/02/11 06:05:32;;;;;;;16.83;11.23;;;;;;;;;;5019812;28;20050;-87
2024/02/11 06:08:00;;;;;;;17.17;11.98;;;;;;;;;;5037652;28;20047;-88
2024/02/11 06:10:36;;;;;;;26.00;13.60;;;;;;;;;;5017716;28;20058;-87
2024/02/11 06:13:05;;;;;;;20.00;12.70;;;;;;;;;;5018989;28;20064;-86
2024/02/11 06:15:37;;;;;;;20.83;13.50;;;;;;;;;;5036773;28;20077;-86
2024/02/11 06:18:05;;;;;;;23.70;14.57;;;;;;;;;;5030705;28;20050;-86
2024/02/11 06:20:32;;;;;;;17.10;11.38;;;;;;;;;;5036523;28;20050;-87
2024/02/11 06:23:00;;;;;;;16.50;11.63;;;;;;;;;;5023796;28;20060;-87
2024/02/11 06:25:27;;;;;;;17.40;11.48;;;;;;;;;;5031678;28;20384;-88
2024/02/11 06:27:54;;;;;;;17.00;11.75;;;;;;;;;;5023911;28;20050;-87
2024/02/11 06:30:24;;;;;;;20.13;13.20;;;;;;;;;;5039757;28;20050;-87
2024/02/11 06:32:53;;;;;;;16.67;11.70;;;;;;;;;;5028861;28;20186;-87
2024/02/11 06:35:21;;;;;;;16.38;11.50;;;;;;;;;;5013531;28;20061;-87
2024/02/11 06:37:51;;;;;;;16.42;12.07;;;;;;;;;;5030244;28;20058;-88
2024/02/11 06:40:22;;;;;;;18.02;12.88;;;;;;;;;;5031167;28;20489;-87
2024/02/11 06:42:52;;;;;;;19.75;11.77;;;;;;;;;;5029022;28;20057;-87
2024/02/11 06:45:21;;;;;;;18.70;12.50;;;;;;;;;;5013250;28;20044;-87
2024/02/11 06:47:48;;;;;;;16.63;12.32;;;;;;;;;;5019211;28;20498;-87
2024/02/11 06:50:18;;;;;;;19.30;12.20;;;;;;;;;;5012741;28;20050;-88
2024/02/11 06:52:50;;;;;;;15.75;11.05;;;;;;;;;;5029027;28;20058;-87
2024/02/11 06:55:21;;;;;;;21.17;12.77;;;;;;;;;;5030958;28;20050;-86
2024/02/11 06:57:49;;;;;;;45.30;23.10;;;;;;;;;;5031521;28;20054;-86
2024/02/11 07:00:18;;;;;;;29.80;16.67;;;;;;;;;;5031031;28;20057;-87
2024/02/11 07:02:47;;;;;;;21.38;14.52;;;;;;;;;;5029113;28;20081;-88
2024/02/11 07:05:15;;;;;;;19.92;14.52;;;;;;;;;;5014479;28;20126;-86
2024/02/11 07:07:44;;;;;;;19.65;13.88;;;;;;;;;;5038133;28;20050;-88
2024/02/11 07:10:13;;;;;;;24.90;15.27;;;;;;;;;;5035124;28;20046;-86
2024/02/11 07:12:44;;;;;;;33.67;21.27;;;;;;;;;;5032734;28;20105;-87
2024/02/11 07:15:13;;;;;;;19.85;13.77;;;;;;;;;;5033198;28;20113;-87
2024/02/11 07:17:42;;;;;;;18.23;13.23;;;;;;;;;;5031503;28;20054;-87
2024/02/11 07:20:12;;;;;;;44.35;27.45;;;;;;;;;;5020870;28;20085;-87
2024/02/11 07:22:42;;;;;;;62.53;34.35;;;;;;;;;;5021992;28;20050;-86
2024/02/11 07:25:10;;;;;;;55.05;33.47;;;;;;;;;;5034326;28;20100;-87
2024/02/11 07:27:37;;;;;;;47.92;27.48;;;;;;;;;;5020176;28;20050;-86
2024/02/11 07:30:04;;;;;;;36.72;23.42;;;;;;;;;;5037377;28;20046;-87
2024/02/11 07:32:32;;;;;;;26.50;17.80;;;;;;;;;;5034848;28;20046;-87
2024/02/11 07:34:59;;;;;;;23.15;16.65;;;;;;;;;;5020348;28;20045;-88
2024/02/11 07:37:27;;;;;;;25.67;19.75;;;;;;;;;;5035023;28;20508;-87
2024/02/11 07:39:55;;;;;;;25.20;18.15;;;;;;;;;;5035162;28;20052;-86
2024/02/11 07:42:22;;;;;;;20.65;15.65;;;;;;;;;;5025894;28;20049;-86
2024/02/11 07:44:54;;;;;;;25.50;15.30;;;;;;;;;;5031897;28;20050;-87
2024/02/11 07:47:22;;;;;;;23.80;14.90;;;;;;;;;;5017825;28;20411;-87
2024/02/11 07:49:50;;;;;;;18.00;13.60;;;;;;;;;;5016290;28;20053;-87
2024/02/11 07:52:19;;;;;;;19.90;14.45;;;;;;;;;;5035648;28;20050;-88
2024/02/11 07:54:48;;;;;;;24.50;15.98;;;;;;;;;;5034099;28;20049;-87
2024/02/11 07:57:17;;;;;;;28.65;18.85;;;;;;;;;;5023313;28;20183;-87
2024/02/11 07:59:45;;;;;;;24.80;18.40;;;;;;;;;;5025367;28;20061;-87
2024/02/11 08:02:14;;;;;;;22.63;16.65;;;;;;;;;;5020591;28;20161;-87
2024/02/11 08:04:41;;;;;;;32.00;19.73;;;;;;;;;;5033507;28;20042;-87
2024/02/11 08:07:10;;;;;;;24.50;16.80;;;;;;;;;;5014884;28;20049;-88
2024/02/11 08:09:37;;;;;;;26.23;17.08;;;;;;;;;;5030194;28;20053;-87
2024/02/11 08:12:05;;;;;;;30.65;20.38;;;;;;;;;;5032349;28;20058;-87
2024/02/11 08:14:35;;;;;;;23.23;16.13;;;;;;;;;;5031947;28;20050;-87
2024/02/11 08:17:02;;;;;;;21.23;16.65;;;;;;;;;;5031851;28;20062;-88
2024/02/11 08:19:31;;;;;;;25.30;18.98;;;;;;;;;;5024329;28;20052;-87
2024/02/11 08:21:59;;;;;;;20.55;15.50;;;;;;;;;;5030299;28;20058;-87
2024/02/11 08:24:27;;;;;;;20.45;14.80;;;;;;;;;;5016732;28;20074;-86
2024/02/11 08:26:54;;;;;;;19.20;14.45;;;;;;;;;;5032551;28;20104;-87
2024/02/11 08:29:21;;;;;;;18.73;13.82;;;;;;;;;;5018186;28;20416;-86
2024/02/11 08:31:50;;;;;;;16.33;12.93;;;;;;;;;;5010772;28;20071;-88
2024/02/11 08:34:18;;;;;;;17.83;13.07;;;;;;;;;;5033196;28;20053;-88
2024/02/11 08:36:45;;;;;;;20.05;13.23;;;;;;;;;;5031349;28;20080;-88
2024/02/11 08:39:14;;;;;;;17.08;12.20;;;;;;;;;;5017939;28;20108;-87
2024/02/11 08:41:41;;;;;;;15.60;12.18;;;;;;;;;;5023066;28;20104;-87
2024/02/11 08:44:09;;;;;;;18.60;13.35;;;;;;;;;;5015412;28;20055;-87
2024/02/11 08:46:37;;;;;;;18.60;14.10;;;;;;;;;;5028733;28;20061;-87
2024/02/11 08:49:05;;;;;;;22.23;16.98;;;;;;;;;;5027671;28;20045;-87
2024/02/11 08:51:35;;;;;;;22.73;17.00;;;;;;;;;;5013457;28;20529;-88
2024/02/11 08:54:02;;;;;;;24.88;18.88;;;;;;;;;;5004321;28;20045;-87
2024/02/11 08:56:29;;;;;;;21.30;16.23;;;;;;;;;;5012081;28;20138;-86
2024/02/11 08:58:58;;;;;;;22.75;18.33;;;;;;;;;;5008975;28;20054;-88
2024/02/11 09:01:25;;;;;;;21.00;16.42;;;;;;;;;;5007979;28;20074;-88
2024/02/11 09:03:53;;;;;;;16.02;12.75;;;;;;;;;;5017324;28;20054;-87
2024/02/11 09:06:20;;;;;;;18.23;14.60;;;;;;;;;;5030930;28;20043;-87
2024/02/11 09:08:48;;;;;;;15.10;12.75;;;;;;;;;;5017357;28;20051;-88
2024/02/11 09:11:16;;;;;;;17.05;13.18;;;;;;;;;;5019540;28;20046;-88
2024/02/11 09:13:45;;;;;;;15.73;12.80;;;;;;;;;;5027824;28;20112;-88
2024/02/11 09:16:12;;;;;;;16.33;12.20;;;;;;;;;;5018586;28;20050;-88
2024/02/11 09:18:40;;;;;;;15.38;10.98;;;;;;;;;;5018904;28;20053;-87
2024/02/11 09:21:08;;;;;;;14.27;12.07;;;;;;;;;;5030975;28;20046;-87
2024/02/11 09:23:36;;;;;;;15.32;11.90;;;;;;;;;;5008352;28;20097;-88
2024/02/11 09:26:05;;;;;;;11.85;10.05;;;;;;;;;;5018443;28;20056;-87
2024/02/11 09:28:33;;;;;;;13.85;11.05;;;;;;;;;;5018142;28;20069;-88
2024/02/11 09:31:01;;;;;;;15.23;12.25;;;;;;;;;;5026105;28;20076;-88
2024/02/11 09:33:28;;;;;;;16.15;12.75;;;;;;;;;;5033571;28;20104;-88
2024/02/11 09:35:57;;;;;;;15.73;11.95;;;;;;;;;;5010362;28;20074;-88
2024/02/11 09:38:24;;;;;;;14.25;10.90;;;;;;;;;;5015424;28;20139;-88
2024/02/11 09:40:54;;;;;;;16.30;13.98;;;;;;;;;;5035127;28;20058;-88
2024/02/11 09:43:22;;;;;;;21.33;15.05;;;;;;;;;;5005710;28;20566;-88
2024/02/11 09:45:52;;;;;;;20.67;16.27;;;;;;;;;;5032404;28;20046;-88
2024/02/11 09:48:20;;;;;;;22.25;17.05;;;;;;;;;;5002878;28;20051;-88
2024/02/11 09:50:50;;;;;;;20.77;16.30;;;;;;;;;;5006773;28;20104;-88
2024/02/11 09:53:17;;;;;;;22.50;16.55;;;;;;;;;;5002553;28;20431;-86
2024/02/11 09:55:45;;;;;;;20.50;14.75;;;;;;;;;;5011293;28;20104;-88
2024/02/11 09:58:13;;;;;;;17.73;13.98;;;;;;;;;;5016210;28;20077;-90
2024/02/11 10:00:40;;;;;;;17.67;13.18;;;;;;;;;;5032022;28;20085;-88
2024/02/11 10:03:09;;;;;;;20.08;14.50;;;;;;;;;;5004846;28;20050;-88
2024/02/11 10:05:39;;;;;;;16.45;13.77;;;;;;;;;;5002499;28;20106;-88
2024/02/11 10:08:13;;;;;;;17.15;12.68;;;;;;;;;;5008001;28;20404;-87
2024/02/11 10:10:42;;;;;;;15.80;11.68;;;;;;;;;;5006721;28;20045;-88
2024/02/11 10:13:19;;;;;;;17.33;12.45;;;;;;;;;;5008375;28;20050;-87
2024/02/11 10:15:47;;;;;;;14.95;11.98;;;;;;;;;;4999734;28;20481;-88
2024/02/11 10:18:18;;;;;;;13.55;11.05;;;;;;;;;;5008115;28;20145;-88
2024/02/11 10:20:46;;;;;;;19.95;15.98;;;;;;;;;;5013750;28;20074;-88
2024/02/11 10:23:18;;;;;;;22.83;17.73;;;;;;;;;;4995379;28;20054;-87
2024/02/11 10:25:50;;;;;;;21.98;14.90;;;;;;;;;;5004294;28;20192;-88
2024/02/11 10:28:18;;;;;;;18.02;14.65;;;;;;;;;;5006953;28;20046;-88
2024/02/11 10:30:45;;;;;;;25.00;16.20;;;;;;;;;;5005137;28;20423;-88
2024/02/11 10:33:13;;;;;;;23.38;15.60;;;;;;;;;;5008175;28;20057;-88
2024/02/11 10:35:41;;;;;;;19.60;15.70;;;;;;;;;;5006625;28;20057;-88
2024/02/11 10:38:09;;;;;;;20.33;14.02;;;;;;;;;;5026432;28;20097;-88
2024/02/11 10:40:37;;;;;;;20.00;14.75;;;;;;;;;;5003485;28;20501;-88
2024/02/11 10:43:05;;;;;;;18.42;13.55;;;;;;;;;;5002652;28;20194;-88
2024/02/11 10:45:35;;;;;;;15.95;13.00;;;;;;;;;;5002253;28;20046;-88
2024/02/11 10:48:03;;;;;;;17.90;13.73;;;;;;;;;;4999563;28;20041;-88
2024/02/11 10:50:32;;;;;;;20.45;14.07;;;;;;;;;;5005945;28;20042;-89
2024/02/11 10:53:03;;;;;;;18.77;13.85;;;;;;;;;;4997378;28;20068;-89
2024/02/11 10:55:45;;;;;;;19.13;14.13;;;;;;;;;;5005025;28;20491;-89
2024/02/11 10:58:16;;;;;;;19.95;14.25;;;;;;;;;;4983940;28;20084;-89
2024/02/11 11:00:45;;;;;;;17.05;13.25;;;;;;;;;;5003324;28;20058;-88
2024/02/11 11:03:14;;;;;;;19.63;14.40;;;;;;;;;;5001521;28;20050;-89
2024/02/11 11:05:43;;;;;;;15.10;11.40;;;;;;;;;;5001808;28;20559;-89
2024/02/11 11:08:13;;;;;;;13.52;11.38;;;;;;;;;;4997139;28;20050;-89
2024/02/11 11:10:40;;;;;;;12.57;8.50;;;;;;;;;;5004322;28;20488;-89
2024/02/11 11:13:09;;;;;;;13.02;9.00;;;;;;;;;;5002461;28;20060;-89
2024/02/11 11:15:37;;;;;;;12.30;8.30;;;;;;;;;;5001930;28;20058;-88
2024/02/11 11:18:05;;;;;;;6.90;6.05;;;;;;;;;;5009371;28;20447;-89
2024/02/11 11:20:36;;;;;;;3.25;3.05;;;;;;;;;;5009334;28;20092;-89
2024/02/11 11:23:06;;;;;;;3.13;2.85;;;;;;;;;;4998187;28;20054;-89
2024/02/11 11:25:34;;;;;;;2.90;2.70;;;;;;;;;;5005501;28;20093;-89
2024/02/11 11:28:14;;;;;;;5.30;3.97;;;;;;;;;;5015253;28;20050;-90
2024/02/11 11:30:45;;;;;;;5.82;5.22;;;;;;;;;;4995779;28;20101;-90
2024/02/11 11:33:17;;;;;;;3.35;3.05;;;;;;;;;;5000938;28;20050;-89
2024/02/11 11:35:45;;;;;;;5.03;4.53;;;;;;;;;;5012891;28;20132;-89
2024/02/11 11:38:20;;;;;;;1.67;1.58;;;;;;;;;;5026253;28;20054;-90
2024/02/11 11:40:51;;;;;;;2.10;1.98;;;;;;;;;;5016454;28;20458;-89
2024/02/11 11:43:35;;;;;;;1.15;1.10;;;;;;;;;;5010548;28;20047;-89
2024/02/11 11:46:03;;;;;;;5.53;3.35;;;;;;;;;;5015892;28;20065;-88
2024/02/11 11:48:35;;;;;;;0.60;0.60;;;;;;;;;;5000346;28;20046;-88
2024/02/11 11:51:10;;;;;;;1.63;1.52;;;;;;;;;;4978635;28;20073;-89
2024/02/11 11:57:19;;;;;;;0.52;0.52;;;;;;;;;;5002065;28;20029;-87
2024/02/11 11:59:56;;;;;;;1.60;0.88;;;;;;;;;;5007751;28;20492;-87
2024/02/11 12:02:23;;;;;;;0.88;0.88;;;;;;;;;;5016819;28;20504;-88
2024/02/11 12:04:53;;;;;;;1.42;1.33;;;;;;;;;;5016155;28;20046;-88
2024/02/11 12:07:21;;;;;;;1.60;1.20;;;;;;;;;;5008217;28;20402;-86
2024/02/11 12:09:52;;;;;;;1.52;1.20;;;;;;;;;;5014379;28;20119;-87
2024/02/11 12:12:20;;;;;;;0.40;0.40;;;;;;;;;;5010298;28;20057;-87
2024/02/11 12:14:48;;;;;;;0.20;0.20;;;;;;;;;;5005808;28;20050;-87
2024/02/11 12:17:27;;;;;;;0.70;0.70;;;;;;;;;;5005863;28;20059;-87
2024/02/11 12:19:56;;;;;;;0.60;0.60;;;;;;;;;;5004158;28;20049;-87
2024/02/11 12:22:26;;;;;;;0.60;0.60;;;;;;;;;;5011364;28;20050;-87
2024/02/11 12:24:53;;;;;;;0.30;0.30;;;;;;;;;;5008412;28;20124;-87
2024/02/11 12:27:21;;;;;;;0.60;0.60;;;;;;;;;;5018166;28;20046;-87
2024/02/11 12:30:00;;;;;;;0.20;0.20;;;;;;;;;;5013666;28;20046;-87
2024/02/11 12:32:29;;;;;;;0.50;0.50;;;;;;;;;;5004003;28;20133;-87
2024/02/11 12:34:58;;;;;;;1.95;1.60;;;;;;;;;;5012550;28;20050;-87
2024/02/11 12:37:25;;;;;;;0.85;0.85;;;;;;;;;;5009367;28;20049;-87
2024/02/11 12:39:56;;;;;;;0.65;0.65;;;;;;;;;;5012133;28;20423;-87
2024/02/11 12:42:24;;;;;;;0.30;0.30;;;;;;;;;;5009834;28;20058;-86
2024/02/11 12:44:53;;;;;;;0.50;0.50;;;;;;;;;;5012583;28;20046;-87
2024/02/11 12:47:20;;;;;;;0.70;0.70;;;;;;;;;;5009675;28;20053;-87
2024/02/11 12:49:48;;;;;;;1.33;1.20;;;;;;;;;;5013023;28;20054;-87
2024/02/11 12:52:16;;;;;;;2.17;1.27;;;;;;;;;;5008458;28;20050;-87
2024/02/11 12:54:44;;;;;;;0.75;0.75;;;;;;;;;;5014079;28;20045;-87
2024/02/11 12:57:11;;;;;;;1.00;1.00;;;;;;;;;;5011035;28;20075;-87
2024/02/11 12:59:38;;;;;;;1.33;1.23;;;;;;;;;;5019023;28;20104;-87
2024/02/11 13:02:05;;;;;;;0.40;0.40;;;;;;;;;;5014016;28;20062;-87
2024/02/11 13:04:34;;;;;;;1.05;0.50;;;;;;;;;;5013809;28;20046;-88
2024/02/11 13:07:01;;;;;;;0.88;0.68;;;;;;;;;;4997971;28;20068;-87
2024/02/11 13:09:28;;;;;;;0.50;0.50;;;;;;;;;;5007618;28;20129;-87
2024/02/11 13:11:56;;;;;;;0.50;0.50;;;;;;;;;;5006164;28;20058;-87
2024/02/11 13:14:23;;;;;;;0.73;0.73;;;;;;;;;;5013684;28;20100;-87
2024/02/11 13:16:51;;;;;;;0.70;0.70;;;;;;;;;;5006715;28;20137;-88
2024/02/11 13:19:18;;;;;;;1.20;1.13;;;;;;;;;;5010176;28;20050;-86
2024/02/11 13:21:47;;;;;;;0.88;0.68;;;;;;;;;;5028004;28;20116;-87
2024/02/11 13:24:18;;;;;;;0.55;0.55;;;;;;;;;;5006829;28;20061;-88
2024/02/11 13:26:46;;;;;;;1.50;0.60;;;;;;;;;;5005320;28;20057;-86
2024/02/11 13:29:13;;;;;;;0.70;0.70;;;;;;;;;;5007544;28;20046;-87
2024/02/11 13:31:41;;;;;;;0.77;0.70;;;;;;;;;;5010803;28;20076;-87
2024/02/11 13:34:09;;;;;;;0.52;0.50;;;;;;;;;;5013581;28;20404;-86
2024/02/11 13:36:36;;;;;;;0.50;0.50;;;;;;;;;;5008117;28;20534;-87
2024/02/11 13:39:04;;;;;;;0.63;0.63;;;;;;;;;;5018901;28;20407;-86
2024/02/11 13:41:31;;;;;;;0.93;0.70;;;;;;;;;;5021928;28;20045;-87
2024/02/11 13:43:58;;;;;;;0.60;0.60;;;;;;;;;;5017219;28;20046;-86
2024/02/11 13:46:26;;;;;;;0.82;0.80;;;;;;;;;;5017986;28;20125;-86
2024/02/11 13:48:53;;;;;;;0.70;0.70;;;;;;;;;;5017151;28;20043;-86
2024/02/11 13:51:20;;;;;;;2.25;0.95;;;;;;;;;;5021110;28;20069;-86
2024/02/11 13:53:48;;;;;;;0.70;0.70;;;;;;;;;;5023064;28;20065;-87
2024/02/11 13:56:16;;;;;;;0.60;0.60;;;;;;;;;;5019603;28;20124;-86
2024/02/11 13:58:44;;;;;;;0.63;0.63;;;;;;;;;;5019579;28;20053;-86
2024/02/11 14:01:12;;;;;;;0.80;0.80;;;;;;;;;;5020322;28;20114;-87
2024/02/11 14:03:43;;;;;;;0.50;0.50;;;;;;;;;;5011805;28;20060;-85
2024/02/11 14:06:13;;;;;;;1.58;0.85;;;;;;;;;;5021919;28;20124;-87
2024/02/11 14:08:45;;;;;;;2.33;0.80;;;;;;;;;;5023119;28;20045;-86
2024/02/11 14:11:13;;;;;;;0.95;0.95;;;;;;;;;;5015515;28;20102;-86
2024/02/11 14:13:40;;;;;;;1.10;1.00;;;;;;;;;;5022816;28;20045;-85
2024/02/11 14:16:10;;;;;;;0.80;0.80;;;;;;;;;;5022171;28;20491;-86
2024/02/11 14:18:38;;;;;;;1.63;1.13;;;;;;;;;;5020405;28;20054;-85
2024/02/11 14:21:08;;;;;;;1.27;1.27;;;;;;;;;;5009171;28;20089;-86
2024/02/11 14:23:38;;;;;;;1.83;1.10;;;;;;;;;;5011621;28;20054;-87
2024/02/11 14:26:09;;;;;;;0.70;0.70;;;;;;;;;;5003479;28;20104;-85
2024/02/11 14:28:37;;;;;;;0.90;0.90;;;;;;;;;;5018080;28;20049;-87
2024/02/11 14:31:07;;;;;;;1.55;1.45;;;;;;;;;;5007074;28;20046;-86
2024/02/11 14:33:35;;;;;;;1.63;1.52;;;;;;;;;;5008290;28;20077;-86
2024/02/11 14:36:03;;;;;;;1.13;1.13;;;;;;;;;;5017793;28;20078;-86